Flight Track Log - Related Links

Times and Time Zones

All times are in EDT time to prevent confusion due to time zone crossing. See the AFL150 flight status page for this flight to view local times or setup timezone preferences in your user account.

Time Position Orientation Groundspeed Altitude Reporting Facility
EDT Latitude Longitude Course Direction KTS MPH feet Rate Location/Type
Tue 05:39:00 AM 56.1535 36.9430 307° West  Level Estimated
Tue 05:40:00 AM 56.2211 36.7779 306° West  Level Estimated
Tue 05:41:00 AM 56.2885 36.6123 306° West  Level Estimated
Tue 05:42:00 AM 56.3557 36.4460 306° West  Level Estimated
Tue 05:43:00 AM 56.4227 36.2792 306° West  Level Estimated
Tue 05:44:00 AM 56.4894 36.1118 306° West  Level Estimated
Tue 05:45:00 AM 56.5559 35.9438 306° West  Level Estimated
Tue 05:46:00 AM 56.6222 35.7752 306° West  Level Estimated
Tue 05:47:00 AM 56.6883 35.6060 305° West  Level Estimated
Tue 05:48:00 AM 56.7541 35.4363 305° West  Level Estimated
Tue 05:49:00 AM 56.8197 35.2659 305° West  Level Estimated
Tue 05:50:00 AM 56.8851 35.0949 305° West  Level Estimated
Tue 05:51:00 AM 56.9502 34.9234 305° West  Level Estimated
Tue 05:52:00 AM 57.0151 34.7512 305° West  Level Estimated
Tue 05:53:00 AM 57.0798 34.5784 305° West  Level Estimated
Tue 05:54:00 AM 57.1442 34.4051 304° West  Level Estimated
Tue 05:55:00 AM 57.2084 34.2311 304° West  Level Estimated
Tue 05:56:00 AM 57.2724 34.0565 304° West  Level Estimated
Tue 05:57:00 AM 57.3360 33.8813 304° West  Level Estimated
Tue 05:58:00 AM 57.3995 33.7056 304° West  Level Estimated
Tue 05:59:00 AM 57.4627 33.5291 304° West  Level Estimated
Tue 06:00:00 AM 57.5257 33.3521 304° West  Level Estimated
Tue 06:01:00 AM 57.5884 33.1745 303° West  Level Estimated
Tue 06:02:00 AM 57.6509 32.9963 303° West  Level Estimated
Tue 06:03:00 AM 57.7131 32.8175 303° West  Level Estimated
Tue 06:04:00 AM 57.7750 32.6380 303° West  Level Estimated
Tue 06:05:00 AM 57.8367 32.4579 303° West  Level Estimated
Tue 06:06:00 AM 57.8982 32.2772 303° West  Level Estimated
Tue 06:07:00 AM 57.9594 32.0959 303° West  Level Estimated
Tue 06:08:00 AM 58.0203 31.9140 302° West  Level Estimated
Tue 06:09:00 AM 58.0810 31.7314 302° West  Level Estimated
Tue 06:10:00 AM 58.1414 31.5483 302° West  Level Estimated
Tue 06:11:00 AM 58.2015 31.3645 302° West  Level Estimated
Tue 06:12:00 AM 58.2614 31.1801 302° West  Level Estimated
Tue 06:13:00 AM 58.3210 30.9950 302° West  Level Estimated
Tue 06:14:00 AM 58.3804 30.8094 301° West  Level Estimated
Tue 06:15:00 AM 58.4395 30.6231 301° West  Level Estimated
Tue 06:16:00 AM 58.4983 30.4362 301° West  Level Estimated
Tue 06:17:00 AM 58.5568 30.2487 301° West  Level Estimated
Tue 06:18:00 AM 58.6151 30.0605 301° West  Level Estimated
Tue 06:19:00 AM 58.6731 29.8717 301° West  Level Estimated
Tue 06:20:00 AM 58.7308 29.6823 300° West  Level Estimated
Tue 06:21:00 AM 58.7882 29.4923 300° West  Level Estimated
Tue 06:22:00 AM 58.8453 29.3016 300° West  Level Estimated
Tue 06:23:00 AM 58.9022 29.1103 300° West  Level Estimated
Tue 06:24:00 AM 58.9588 28.9184 300° West  Level Estimated
Tue 06:25:00 AM 59.0151 28.7258 300° West  Level Estimated
Tue 06:26:00 AM 59.0711 28.5326 299° West  Level Estimated
Tue 06:27:00 AM 59.1268 28.3388 299° West  Level Estimated
Tue 06:28:00 AM 59.1823 28.1444 299° West  Level Estimated
Tue 06:29:00 AM 59.2374 27.9493 299° West  Level Estimated
Tue 06:30:00 AM 59.2923 27.7536 299° West  Level Estimated
Tue 06:31:00 AM 59.3468 27.5573 299° West  Level Estimated
Tue 06:32:00 AM 59.4011 27.3603 298° West  Level Estimated
Tue 06:33:00 AM 59.4550 27.1627 298° West  Level Estimated
Tue 06:34:00 AM 59.5087 26.9645 298° West  Level Estimated
Tue 06:35:00 AM 59.5621 26.7656 298° West  Level Estimated
Tue 06:36:00 AM 59.6151 26.5661 298° West  Level Estimated
Tue 06:37:00 AM 59.6679 26.3660 298° West  Level Estimated
Tue 06:38:00 AM 59.7203 26.1653 297° West  Level Estimated
Tue 06:39:00 AM 59.7725 25.9639 297° West  Level Estimated
Tue 06:40:00 AM 59.8243 25.7619 297° West  Level Estimated
Tue 06:41:00 AM 59.8758 25.5593 297° West  Level Estimated
Tue 06:42:00 AM 59.9271 25.3560 297° West  Level Estimated
Tue 06:43:00 AM 59.9780 25.1521 297° West  Level Estimated
Tue 06:44:00 AM 60.0285 24.9476 296° West  Level Estimated
Tue 06:45:00 AM 60.0788 24.7425 296° West  Level Estimated
Tue 06:46:00 AM 60.1287 24.5367 296° West  Level Estimated
Tue 06:47:00 AM 60.1784 24.3304 296° West  Level Estimated
Tue 06:48:00 AM 60.2277 24.1234 296° West  Level Estimated
Tue 06:49:00 AM 60.2767 23.9157 296° West  Level Estimated
Tue 06:50:00 AM 60.3253 23.7075 295° West  Level Estimated
Tue 06:51:00 AM 60.3736 23.4986 295° West  Level Estimated
Tue 06:52:00 AM 60.4217 23.2891 295° West  Level Estimated
Tue 06:53:00 AM 60.4693 23.0790 295° West  Level Estimated
Tue 06:54:00 AM 60.5167 22.8683 295° West  Level Estimated
Tue 06:55:00 AM 60.5637 22.6570 294° West  Level Estimated
Tue 06:56:00 AM 60.6104 22.4450 294° West  Level Estimated
Tue 06:57:00 AM 60.6567 22.2325 294° West  Level Estimated
Tue 06:58:00 AM 60.7027 22.0193 294° West  Level Estimated
Tue 06:59:00 AM 60.7484 21.8055 294° West  Level Estimated
Tue 07:00:00 AM 60.7937 21.5912 294° West  Level Estimated
Tue 07:01:00 AM 60.8386 21.3762 293° West  Level Estimated
Tue 07:02:00 AM 60.8833 21.1606 293° West  Level Estimated
Tue 07:03:00 AM 60.9276 20.9444 293° West  Level Estimated
Tue 07:04:00 AM 60.9715 20.7276 293° West  Level Estimated
Tue 07:05:00 AM 61.0151 20.5102 293° West  Level Estimated
Tue 07:05:50 AM 61.0371 22.2304 301° West 386 444 34,000  Level FlightAware ADS-B
Tue 07:06:00 AM 61.0583 20.2922 292° West  Level Estimated
Tue 07:07:35 AM 61.1332 21.8930 300° West 384 442 34,900  Level FlightAware ADS-B
Tue 07:08:49 AM 61.1351 21.8874 315° West 383 441 35,700 528 Climbing FlightAware ADS-B
Tue 07:09:40 AM 61.2877 21.5725 315° West 388 447 36,000 164 Climbing FlightAware ADS-B
Tue 07:10:39 AM 61.3615 21.4213 315° West 388 447 36,000  Level FlightAware ADS-B
Tue 07:11:20 AM 61.4170 21.3066 315° West 388 447 36,000  Level FlightAware ADS-B
Tue 07:12:07 AM 61.4751 21.1860 315° West 387 445 36,000  Level FlightAware ADS-B
Tue 07:14:11 AM 61.6325 20.8553 315° West 388 447 36,000 Level FlightAware ADS-B
Tue 07:16:00 AM 61.7112 20.4514 293° West  Level Estimated
Tue 07:17:00 AM 61.7541 20.2281 292° West  Level Estimated
Tue 07:18:00 AM 61.7966 20.0043 292° West  Level Estimated
Tue 07:19:00 AM 61.8387 19.7798 292° West  Level Estimated
Tue 07:20:00 AM 61.8804 19.5547 292° West  Level Estimated
Tue 07:21:00 AM 61.9218 19.3290 291° West  Level Estimated
Tue 07:22:00 AM 61.9628 19.1027 291° West  Level Estimated
Tue 07:23:00 AM 62.0034 18.8758 291° West  Level Estimated
Tue 07:24:00 AM 62.0437 18.6483 291° West  Level Estimated
Tue 07:25:00 AM 62.0836 18.4202 291° West  Level Estimated
Tue 07:26:00 AM 62.1231 18.1915 290° West  Level Estimated
Tue 07:27:00 AM 62.1623 17.9622 290° West  Level Estimated
Tue 07:28:00 AM 62.2010 17.7323 290° West  Level Estimated
Tue 07:29:00 AM 62.2394 17.5018 290° West  Level Estimated
Tue 07:30:00 AM 62.2774 17.2707 290° West  Level Estimated
Tue 07:31:00 AM 62.3150 17.0390 289° West  Level Estimated
Tue 07:32:00 AM 62.3522 16.8068 289° West  Level Estimated
Tue 07:33:00 AM 62.3890 16.5740 289° West  Level Estimated
Tue 07:34:00 AM 62.4255 16.3406 289° West  Level Estimated
Tue 07:35:00 AM 62.4615 16.1067 289° West  Level Estimated
Tue 07:36:00 AM 62.4972 15.8722 288° West  Level Estimated
Tue 07:37:00 AM 62.5325 15.6371 288° West  Level Estimated
Tue 07:38:00 AM 62.5673 15.4015 288° West  Level Estimated
Tue 07:39:00 AM 62.6018 15.1654 288° West  Level Estimated
Tue 07:40:00 AM 62.6359 14.9287 287° West  Level Estimated
Tue 07:41:00 AM 62.6695 14.6914 287° West  Level Estimated
Tue 07:42:00 AM 62.7028 14.4536 287° West  Level Estimated
Tue 07:43:00 AM 62.7357 14.2153 287° West  Level Estimated
Tue 07:44:00 AM 62.7681 13.9765 287° West  Level Estimated
Tue 07:45:00 AM 62.8002 13.7371 286° West  Level Estimated
Tue 07:46:00 AM 62.8318 13.4972 286° West  Level Estimated
Tue 07:47:00 AM 62.8631 13.2568 286° West  Level Estimated
Tue 07:48:00 AM 62.8939 13.0159 286° West  Level Estimated
Tue 07:49:00 AM 62.9243 12.7745 286° West  Level Estimated
Tue 07:50:00 AM 62.9543 12.5325 285° West  Level Estimated
Tue 07:51:00 AM 62.9839 12.2901 285° West  Level Estimated
Tue 07:52:00 AM 63.0131 12.0472 285° West  Level Estimated
Tue 07:53:00 AM 63.0419 11.8039 285° West  Level Estimated
Tue 07:54:00 AM 63.0702 11.5600 284° West  Level Estimated
Tue 07:55:00 AM 63.0981 11.3157 284° West  Level Estimated
Tue 07:56:00 AM 63.1256 11.0709 284° West  Level Estimated
Tue 07:57:00 AM 63.1527 10.8256 284° West  Level Estimated
Tue 07:58:00 AM 63.1794 10.5799 284° West  Level Estimated
Tue 07:59:00 AM 63.2056 10.3338 283° West  Level Estimated
Tue 08:00:00 AM 63.2314 10.0872 283° West  Level Estimated
Tue 08:01:00 AM 63.2568 9.8401 283° West  Level Estimated
Tue 08:02:00 AM 63.2817 9.5927 283° West  Level Estimated
Tue 08:03:00 AM 63.3062 9.3448 283° West  Level Estimated
Tue 08:04:00 AM 63.3303 9.0965 282° West  Level Estimated
Tue 08:05:00 AM 63.3540 8.8477 282° West  Level Estimated
Tue 08:06:00 AM 63.3772 8.5986 282° West  Level Estimated
Tue 08:07:00 AM 63.4000 8.3491 282° West  Level Estimated
Tue 08:08:00 AM 63.4223 8.0991 281° West  Level Estimated
Tue 08:09:00 AM 63.4442 7.8488 281° West  Level Estimated
Tue 08:10:00 AM 63.4657 7.5982 281° West  Level Estimated
Tue 08:11:00 AM 63.4867 7.3471 281° West  Level Estimated
Tue 08:12:00 AM 63.5073 7.0957 281° West  Level Estimated
Tue 08:13:00 AM 63.5275 6.8439 280° West  Level Estimated
Tue 08:14:00 AM 63.5472 6.5917 280° West  Level Estimated
Tue 08:15:00 AM 63.5665 6.3393 280° West  Level Estimated
Tue 08:16:00 AM 63.5853 6.0864 280° West  Level Estimated
Tue 08:17:00 AM 63.6037 5.8333 279° West  Level Estimated
Tue 08:18:00 AM 63.6216 5.5798 279° West  Level Estimated
Tue 08:19:00 AM 63.6391 5.3260 279° West  Level Estimated
Tue 08:20:00 AM 63.6561 5.0719 279° West  Level Estimated
Tue 08:21:00 AM 63.6727 4.8175 278° West  Level Estimated
Tue 08:22:00 AM 63.6889 4.5628 278° West  Level Estimated
Tue 08:23:00 AM 63.7045 4.3078 278° West  Level Estimated
Tue 08:24:00 AM 63.7198 4.0526 278° West  Level Estimated
Tue 08:25:00 AM 63.7346 3.7971 278° West  Level Estimated
Tue 08:26:00 AM 63.7489 3.5413 277° West  Level Estimated
Tue 08:27:00 AM 63.7628 3.2852 277° West  Level Estimated
Tue 08:28:00 AM 63.7762 3.0289 277° West  Level Estimated
Tue 08:29:00 AM 63.7892 2.7724 277° West  Level Estimated
Tue 08:30:00 AM 63.8017 2.5156 276° West  Level Estimated
Tue 08:31:00 AM 63.8138 2.2586 276° West  Level Estimated
Tue 08:32:00 AM 63.8254 2.0014 276° West  Level Estimated
Tue 08:33:00 AM 63.8365 1.7440 276° West  Level Estimated
Tue 08:34:00 AM 63.8472 1.4864 275° West  Level Estimated
Tue 08:35:00 AM 63.8574 1.2286 275° West  Level Estimated
Tue 08:36:00 AM 63.8672 0.9706 275° West  Level Estimated
Tue 08:37:00 AM 63.8765 0.7124 275° West  Level Estimated
Tue 08:38:00 AM 63.8853 0.4541 275° West  Level Estimated
Tue 08:39:00 AM 63.8937 0.1956 274° West  Level Estimated
Tue 08:40:00 AM 63.9017 -0.0631 274° West  Level Estimated
Tue 08:41:00 AM 63.9091 -0.3219 274° West  Level Estimated
Tue 08:42:00 AM 63.9161 -0.5808 274° West  Level Estimated
Tue 08:43:00 AM 63.9227 -0.8398 273° West  Level Estimated
Tue 08:44:00 AM 63.9287 -1.0990 273° West  Level Estimated
Tue 08:45:00 AM 63.9344 -1.3582 273° West  Level Estimated
Tue 08:46:00 AM 63.9395 -1.6176 273° West  Level Estimated
Tue 08:47:00 AM 63.9442 -1.8771 272° West  Level Estimated
Tue 08:48:00 AM 63.9484 -2.1366 272° West  Level Estimated
Tue 08:49:00 AM 63.9522 -2.3962 272° West  Level Estimated
Tue 08:50:00 AM 63.9555 -2.6559 272° West  Level Estimated
Tue 08:51:00 AM 63.9583 -2.9156 272° West  Level Estimated
Tue 08:52:00 AM 63.9607 -3.1754 271° West  Level Estimated
Tue 08:53:00 AM 63.9626 -3.4353 271° West  Level Estimated
Tue 08:54:00 AM 63.9640 -3.6951 271° West  Level Estimated
Tue 08:55:00 AM 63.9650 -3.9550 271° West  Level Estimated
Tue 08:56:00 AM 63.9655 -4.2149 270° West  Level Estimated
Tue 08:57:00 AM 63.9656 -4.4748 270° West  Level Estimated
Tue 08:58:00 AM 63.9651 -4.7347 270° West  Level Estimated
Tue 08:59:00 AM 63.9642 -4.9946 270° West  Level Estimated
Tue 09:00:00 AM 63.9629 -5.2544 269° West  Level Estimated
Tue 09:01:00 AM 63.9611 -5.5142 269° West  Level Estimated
Tue 09:02:00 AM 63.9588 -5.7740 269° West  Level Estimated
Tue 09:03:00 AM 63.9561 -6.0338 269° West  Level Estimated
Tue 09:04:00 AM 63.9529 -6.2935 269° West  Level Estimated
Tue 09:05:00 AM 63.9492 -6.5531 268° West  Level Estimated
Tue 09:06:00 AM 63.9450 -6.8127 268° West  Level Estimated
Tue 09:07:00 AM 63.9404 -7.0721 268° West  Level Estimated
Tue 09:08:00 AM 63.9354 -7.3315 268° West  Level Estimated
Tue 09:09:00 AM 63.9299 -7.5908 267° West  Level Estimated
Tue 09:10:00 AM 63.9239 -7.8500 267° West  Level Estimated
Tue 09:11:00 AM 63.9174 -8.1090 267° West  Level Estimated
Tue 09:12:00 AM 63.9105 -8.3680 267° West  Level Estimated
Tue 09:13:00 AM 63.9031 -8.6268 266° West  Level Estimated
Tue 09:14:00 AM 63.8953 -8.8855 266° West  Level Estimated
Tue 09:15:00 AM 63.8870 -9.1440 266° West  Level Estimated
Tue 09:16:00 AM 63.8782 -9.4024 266° West  Level Estimated
Tue 09:17:00 AM 63.8690 -9.6606 265° West  Level Estimated
Tue 09:18:00 AM 63.8593 -9.9186 265° West  Level Estimated
Tue 09:19:00 AM 63.8492 -10.1764 265° West  Level Estimated
Tue 09:20:00 AM 63.8386 -10.4341 265° West  Level Estimated
Tue 09:21:00 AM 63.8275 -10.6915 265° West  Level Estimated
Tue 09:22:00 AM 63.8160 -10.9488 264° West  Level Estimated
Tue 09:23:00 AM 63.8040 -11.2058 264° West  Level Estimated
Tue 09:24:00 AM 63.7916 -11.4626 264° West  Level Estimated
Tue 09:25:00 AM 63.7787 -11.7192 264° West  Level Estimated
Tue 09:26:00 AM 63.7654 -11.9756 263° West  Level Estimated
Tue 09:27:00 AM 63.7516 -12.2317 263° West  Level Estimated
Tue 09:28:00 AM 63.7373 -12.4875 263° West  Level Estimated
Tue 09:29:00 AM 63.7226 -12.7431 263° West  Level Estimated
Tue 09:30:00 AM 63.7075 -12.9984 262° West  Level Estimated
Tue 09:31:00 AM 63.6919 -13.2534 262° West  Level Estimated
Tue 09:32:00 AM 63.6758 -13.5082 262° West  Level Estimated
Tue 09:33:00 AM 63.6593 -13.7626 262° West  Level Estimated
Tue 09:34:00 AM 63.6424 -14.0168 262° West  Level Estimated
Tue 09:35:00 AM 63.6250 -14.2706 261° West  Level Estimated
Tue 09:36:00 AM 63.6071 -14.5242 261° West  Level Estimated
Tue 09:37:00 AM 63.5888 -14.7774 261° West  Level Estimated
Tue 09:38:00 AM 63.5701 -15.0303 261° West  Level Estimated
Tue 09:39:00 AM 63.5509 -15.2828 260° West  Level Estimated
Tue 09:40:00 AM 63.5313 -15.5350 260° West  Level Estimated
Tue 09:41:00 AM 63.5112 -15.7869 260° West  Level Estimated
Tue 09:42:00 AM 63.4907 -16.0384 260° West  Level Estimated
Tue 09:43:00 AM 63.4697 -16.2895 260° West  Level Estimated
Tue 09:44:00 AM 63.4483 -16.5403 259° West  Level Estimated
Tue 09:45:00 AM 63.4265 -16.7906 259° West  Level Estimated
Tue 09:46:00 AM 63.4043 -17.0406 259° West  Level Estimated
Tue 09:47:00 AM 63.3816 -17.2903 259° West  Level Estimated
Tue 09:48:00 AM 63.3584 -17.5395 258° West  Level Estimated
Tue 09:49:00 AM 63.3349 -17.7883 258° West  Level Estimated
Tue 09:50:00 AM 63.3108 -18.0367 258° West  Level Estimated
Tue 09:51:00 AM 63.2864 -18.2846 258° West  Level Estimated
Tue 09:52:00 AM 63.2616 -18.5322 258° West  Level Estimated
Tue 09:53:00 AM 63.2363 -18.7793 257° West  Level Estimated
Tue 09:54:00 AM 63.2105 -19.0260 257° West  Level Estimated
Tue 09:55:00 AM 63.1844 -19.2722 257° West  Level Estimated
Tue 09:56:00 AM 63.1578 -19.5180 257° West  Level Estimated
Tue 09:57:00 AM 63.1308 -19.7634 256° West  Level Estimated
Tue 09:58:00 AM 63.1034 -20.0082 256° West  Level Estimated
Tue 09:59:00 AM 63.0756 -20.2527 256° West  Level Estimated
Tue 10:00:00 AM 63.0473 -20.4966 256° West  Level Estimated
Tue 10:01:00 AM 63.0186 -20.7401 256° West  Level Estimated
Tue 10:02:00 AM 62.9895 -20.9831 255° West  Level Estimated
Tue 10:03:00 AM 62.9600 -21.2256 255° West  Level Estimated
Tue 10:04:00 AM 62.9301 -21.4676 255° West  Level Estimated
Tue 10:05:00 AM 62.8997 -21.7091 255° West  Level Estimated
Tue 10:06:00 AM 62.8690 -21.9501 254° West  Level Estimated
Tue 10:07:00 AM 62.8378 -22.1906 254° West  Level Estimated
Tue 10:08:00 AM 62.8063 -22.4306 254° West  Level Estimated
Tue 10:09:00 AM 62.7743 -22.6700 254° West  Level Estimated
Tue 10:10:00 AM 62.7419 -22.9090 254° West  Level Estimated
Tue 10:11:00 AM 62.7091 -23.1474 253° West  Level Estimated
Tue 10:12:00 AM 62.6759 -23.3853 253° West  Level Estimated
Tue 10:13:00 AM 62.6423 -23.6227 253° West  Level Estimated
Tue 10:14:00 AM 62.6083 -23.8595 253° West  Level Estimated
Tue 10:15:00 AM 62.5739 -24.0957 253° West  Level Estimated
Tue 10:16:00 AM 62.5391 -24.3315 252° West  Level Estimated
Tue 10:17:00 AM 62.5039 -24.5666 252° West  Level Estimated
Tue 10:18:00 AM 62.4683 -24.8012 252° West  Level Estimated
Tue 10:19:00 AM 62.4324 -25.0353 252° West  Level Estimated
Tue 10:20:00 AM 62.3960 -25.2688 252° West  Level Estimated
Tue 10:21:00 AM 62.3592 -25.5017 251° West  Level Estimated
Tue 10:22:00 AM 62.3221 -25.7340 251° West  Level Estimated
Tue 10:23:00 AM 62.2846 -25.9658 251° West  Level Estimated
Tue 10:24:00 AM 62.2466 -26.1970 251° West  Level Estimated
Tue 10:25:00 AM 62.2083 -26.4275 250° West  Level Estimated
Tue 10:26:00 AM 62.1702 -26.6546 250° West  Level Estimated
Tue 10:27:00 AM 62.1316 -26.8810 250° West  Level Estimated
Tue 10:28:00 AM 62.0927 -27.1068 250° West  Level Estimated
Tue 10:29:00 AM 62.0534 -27.3321 250° West  Level Estimated
Tue 10:30:00 AM 62.0138 -27.5568 249° West  Level Estimated
Tue 10:31:00 AM 61.9738 -27.7809 249° West  Level Estimated
Tue 10:32:00 AM 61.9334 -28.0044 249° West  Level Estimated
Tue 10:33:00 AM 61.8927 -28.2273 249° West  Level Estimated
Tue 10:34:00 AM 61.8516 -28.4497 249° West  Level Estimated
Tue 10:35:00 AM 61.8101 -28.6714 248° West  Level Estimated
Tue 10:36:00 AM 61.7683 -28.8925 248° West  Level Estimated
Tue 10:37:00 AM 61.7261 -29.1130 248° West  Level Estimated
Tue 10:38:00 AM 61.6836 -29.3330 248° West  Level Estimated
Tue 10:39:00 AM 61.6408 -29.5523 248° West  Level Estimated
Tue 10:40:00 AM 61.5975 -29.7710 248° West  Level Estimated
Tue 10:41:00 AM 61.5540 -29.9891 247° West  Level Estimated
Tue 10:42:00 AM 61.5101 -30.2065 247° West  Level Estimated
Tue 10:43:00 AM 61.4658 -30.4234 247° West  Level Estimated
Tue 10:44:00 AM 61.4212 -30.6396 247° West  Level Estimated
Tue 10:45:00 AM 61.3763 -30.8553 247° West  Level Estimated
Tue 10:46:00 AM 61.3310 -31.0703 246° West  Level Estimated
Tue 10:47:00 AM 61.2854 -31.2846 246° West  Level Estimated
Tue 10:48:00 AM 61.2384 -31.5031 246° West  Level Estimated
Tue 10:49:00 AM 61.1910 -31.7212 246° West  Level Estimated
Tue 10:50:00 AM 61.1433 -31.9386 246° West  Level Estimated
Tue 10:51:00 AM 61.0952 -32.1553 245° Southwest  Level Estimated
Tue 10:52:00 AM 61.0468 -32.3714 245° Southwest  Level Estimated
Tue 10:53:00 AM 60.9980 -32.5868 245° Southwest  Level Estimated
Tue 10:54:00 AM 60.9489 -32.8015 245° Southwest  Level Estimated
Tue 10:55:00 AM 60.8994 -33.0156 245° Southwest  Level Estimated
Tue 10:56:00 AM 60.8497 -33.2290 244° Southwest  Level Estimated
Tue 10:57:00 AM 60.7995 -33.4418 244° Southwest  Level Estimated
Tue 10:58:00 AM 60.7491 -33.6539 244° Southwest  Level Estimated
Tue 10:59:00 AM 60.6983 -33.8653 244° Southwest  Level Estimated
Tue 11:00:00 AM 60.6471 -34.0760 244° Southwest  Level Estimated
Tue 11:01:00 AM 60.5957 -34.2861 244° Southwest  Level Estimated
Tue 11:02:00 AM 60.5439 -34.4955 243° Southwest  Level Estimated
Tue 11:03:00 AM 60.4918 -34.7042 243° Southwest  Level Estimated
Tue 11:04:00 AM 60.4394 -34.9123 243° Southwest  Level Estimated
Tue 11:05:00 AM 60.3866 -35.1197 243° Southwest  Level Estimated
Tue 11:06:00 AM 60.3335 -35.3264 243° Southwest  Level Estimated
Tue 11:07:00 AM 60.2801 -35.5325 242° Southwest  Level Estimated
Tue 11:08:00 AM 60.2264 -35.7378 242° Southwest  Level Estimated
Tue 11:09:00 AM 60.1724 -35.9425 242° Southwest  Level Estimated
Tue 11:10:00 AM 60.1180 -36.1466 242° Southwest  Level Estimated
Tue 11:11:00 AM 60.0634 -36.3499 242° Southwest  Level Estimated
Tue 11:12:00 AM 60.0084 -36.5526 242° Southwest  Level Estimated
Tue 11:13:00 AM 59.9531 -36.7546 241° Southwest  Level Estimated
Tue 11:14:00 AM 59.8975 -36.9559 241° Southwest  Level Estimated
Tue 11:15:00 AM 59.8416 -37.1566 241° Southwest  Level Estimated
Tue 11:16:00 AM 59.7854 -37.3565 241° Southwest  Level Estimated
Tue 11:17:00 AM 59.7289 -37.5558 241° Southwest  Level Estimated
Tue 11:18:00 AM 59.6721 -37.7545 241° Southwest  Level Estimated
Tue 11:19:00 AM 59.6150 -37.9524 240° Southwest  Level Estimated
Tue 11:20:00 AM 59.5576 -38.1497 240° Southwest  Level Estimated
Tue 11:21:00 AM 59.4999 -38.3463 240° Southwest  Level Estimated
Tue 11:22:00 AM 59.4419 -38.5422 240° Southwest  Level Estimated
Tue 11:23:00 AM 59.3836 -38.7375 240° Southwest  Level Estimated
Tue 11:24:00 AM 59.3251 -38.9321 240° Southwest  Level Estimated
Tue 11:25:00 AM 59.2662 -39.1260 239° Southwest  Level Estimated
Tue 11:26:00 AM 59.2070 -39.3193 239° Southwest  Level Estimated
Tue 11:27:00 AM 59.1476 -39.5118 239° Southwest  Level Estimated
Tue 11:28:00 AM 59.0879 -39.7038 239° Southwest  Level Estimated
Tue 11:29:00 AM 59.0279 -39.8950 239° Southwest  Level Estimated
Tue 11:30:00 AM 58.9676 -40.0856 239° Southwest  Level Estimated
Tue 11:31:00 AM 58.9070 -40.2755 238° Southwest  Level Estimated
Tue 11:32:00 AM 58.8462 -40.4647 238° Southwest  Level Estimated
Tue 11:33:00 AM 58.7851 -40.6533 238° Southwest  Level Estimated
Tue 11:34:00 AM 58.7237 -40.8412 238° Southwest  Level Estimated
Tue 11:35:00 AM 58.6620 -41.0284 238° Southwest  Level Estimated
Tue 11:36:00 AM 58.6001 -41.2150 238° Southwest  Level Estimated
Tue 11:37:00 AM 58.5379 -41.4010 237° Southwest  Level Estimated
Tue 11:38:00 AM 58.4754 -41.5862 237° Southwest  Level Estimated
Tue 11:39:00 AM 58.4127 -41.7708 237° Southwest  Level Estimated
Tue 11:40:00 AM 58.3497 -41.9548 237° Southwest  Level Estimated
Tue 11:41:00 AM 58.2864 -42.1381 237° Southwest  Level Estimated
Tue 11:42:00 AM 58.2229 -42.3207 237° Southwest  Level Estimated
Tue 11:43:00 AM 58.1591 -42.5027 236° Southwest  Level Estimated
Tue 11:44:00 AM 58.0951 -42.6840 236° Southwest  Level Estimated
Tue 11:45:00 AM 58.0308 -42.8647 236° Southwest  Level Estimated
Tue 11:46:00 AM 57.9663 -43.0447 236° Southwest  Level Estimated
Tue 11:47:00 AM 57.9014 -43.2241 236° Southwest  Level Estimated
Tue 11:48:00 AM 57.8364 -43.4028 236° Southwest  Level Estimated
Tue 11:49:00 AM 57.7711 -43.5809 236° Southwest  Level Estimated
Tue 11:50:00 AM 57.7055 -43.7584 235° Southwest  Level Estimated
Tue 11:51:00 AM 57.6397 -43.9352 235° Southwest  Level Estimated
Tue 11:52:00 AM 57.5737 -44.1113 235° Southwest  Level Estimated
Tue 11:53:00 AM 57.5074 -44.2868 235° Southwest  Level Estimated
Tue 11:54:00 AM 57.4408 -44.4617 235° Southwest  Level Estimated
Tue 11:55:00 AM 57.3741 -44.6360 235° Southwest  Level Estimated
Tue 11:56:00 AM 57.3070 -44.8096 234° Southwest  Level Estimated
Tue 11:57:00 AM 57.2398 -44.9826 234° Southwest  Level Estimated
Tue 11:58:00 AM 57.1723 -45.1549 234° Southwest  Level Estimated
Tue 11:59:00 AM 57.1046 -45.3266 234° Southwest  Level Estimated
Tue 12:00:00 PM 57.0366 -45.4977 234° Southwest  Level Estimated
Tue 12:01:00 PM 56.9684 -45.6682 234° Southwest  Level Estimated
Tue 12:02:00 PM 56.9000 -45.8380 234° Southwest  Level Estimated
Tue 12:03:00 PM 56.8313 -46.0073 233° Southwest  Level Estimated
Tue 12:04:00 PM 56.7624 -46.1759 233° Southwest  Level Estimated
Tue 12:05:00 PM 56.6933 -46.3438 233° Southwest  Level Estimated
Tue 12:06:00 PM 56.6240 -46.5112 233° Southwest  Level Estimated
Tue 12:07:00 PM 56.5544 -46.6780 233° Southwest  Level Estimated
Tue 12:08:00 PM 56.4846 -46.8441 233° Southwest  Level Estimated
Tue 12:09:00 PM 56.4146 -47.0096 233° Southwest  Level Estimated
Tue 12:10:00 PM 56.3444 -47.1745 233° Southwest  Level Estimated
Tue 12:11:00 PM 56.2736 -47.3397 232° Southwest  Level Estimated
Tue 12:12:00 PM 56.2025 -47.5044 232° Southwest  Level Estimated
Tue 12:13:00 PM 56.1313 -47.6684 232° Southwest  Level Estimated
Tue 12:14:00 PM 56.0598 -47.8318 232° Southwest  Level Estimated
Tue 12:15:00 PM 55.9881 -47.9945 232° Southwest  Level Estimated
Tue 12:15:17 PM 59.6833 -56.2333 231° Southwest 470 541 37,000  Level Gander Center
Tue 12:16:00 PM 55.9162 -48.1567 232° Southwest  Level Estimated
Tue 12:16:16 PM 59.6000 -56.4500 233° Southwest 470 541 37,000  Level Gander Center
Tue 12:17:00 PM 55.8441 -48.3183 232° Southwest  Level Estimated
Tue 12:17:16 PM 59.5167 -56.6500 231° Southwest 470 541 37,000  Level Gander Center
Tue 12:18:00 PM 55.7717 -48.4793 231° Southwest  Level Estimated
Tue 12:18:17 PM 59.4333 -56.8333 228° Southwest 470 541 37,000  Level Gander Center
Tue 12:19:00 PM 55.6992 -48.6397 231° Southwest  Level Estimated
Tue 12:19:17 PM 59.3333 -57.0333 226° Southwest 470 541 37,000  Level Gander Center
Tue 12:20:00 PM 55.6264 -48.7995 231° Southwest  Level Estimated
Tue 12:20:17 PM 59.2500 -57.2167 228° Southwest 470 541 37,000  Level Gander Center
Tue 12:21:17 PM 59.1833 -57.4167 237° Southwest 470 541 37,000  Level Gander Center
Tue 12:22:17 PM 59.0833 -57.6167 226° Southwest 470 541 37,000  Level Gander Center
Tue 12:23:17 PM 59.0000 -57.7833 226° Southwest 470 541 37,000  Level Gander Center
Tue 12:24:17 PM 58.9167 -58.0000 233° Southwest 470 541 37,000  Level Gander Center
Tue 12:25:17 PM 58.8333 -58.2000 231° Southwest 470 541 37,000  Level Gander Center
Tue 12:26:17 PM 58.7333 -58.4000 226° Southwest 470 541 37,000  Level Gander Center
Tue 12:27:17 PM 58.6667 -58.5667 232° Southwest 470 541 37,000  Level Gander Center
Tue 12:28:17 PM 58.5833 -58.7500 229° Southwest 470 541 37,000  Level Gander Center
Tue 12:29:17 PM 58.4833 -58.9500 226° Southwest 470 541 37,000  Level Gander Center
Tue 12:30:17 PM 58.4167 -59.0833 226° Southwest 470 541 37,000  Level Gander Center
Tue 12:31:17 PM 58.3167 -59.2833 226° Southwest 470 541 37,000  Level Gander Center
Tue 12:32:17 PM 58.2333 -59.4500 227° Southwest 470 541 37,000  Level Gander Center
Tue 12:33:17 PM 58.1500 -59.6333 229° Southwest 470 541 37,000  Level Gander Center
Tue 12:34:17 PM 58.0667 -59.8333 232° Southwest 470 541 37,000  Level Gander Center
Tue 12:35:17 PM 57.9500 -59.9667 211° Southwest 470 541 37,000  Level Gander Center
Tue 12:36:17 PM 57.8500 -60.1167 219° Southwest 470 541 37,000  Level Gander Center
Tue 12:37:17 PM 57.7333 -60.2500 211° Southwest 470 541 37,000  Level Gander Center
Tue 12:38:17 PM 57.6167 -60.4167 217° Southwest 480 552 37,000  Level Gander Center
Tue 12:39:17 PM 57.5167 -60.5333 212° Southwest 470 541 37,000  Level Gander Center
Tue 12:40:17 PM 57.4000 -60.6667 212° Southwest 470 541 37,000  Level Gander Center
Tue 12:41:17 PM 57.2833 -60.7833 208° Southwest 480 552 37,000  Level Gander Center
Tue 12:42:17 PM 57.1833 -60.9500 222° Southwest 480 552 37,000  Level Gander Center
Tue 12:43:17 PM 57.0667 -61.0667 209° Southwest 480 552 37,000  Level Gander Center
Tue 12:44:17 PM 56.9500 -61.1833 209° Southwest 480 552 37,000  Level Gander Center
Tue 12:45:17 PM 56.8333 -61.3167 212° Southwest 480 552 37,000  Level Gander Center
Tue 12:46:17 PM 56.7167 -61.4667 215° Southwest 480 552 37,000  Level Gander Center
Tue 12:47:17 PM 56.6000 -61.5833 209° Southwest 440 506 37,000  Level Gander Center
Tue 12:48:16 PM 56.4833 -61.7000 209° Southwest 470 541 37,000  Level Gander Center
Tue 12:49:16 PM 56.3833 -61.8167 213° Southwest 470 541 37,000  Level Gander Center
Tue 12:50:16 PM 56.2500 -61.9500 209° Southwest 470 541 37,000  Level Gander Center
Tue 12:52:16 PM 56.0167 -62.1500 206° Southwest 480 552 37,000  Level Gander Center
Tue 12:53:16 PM 55.9000 -62.2667 209° Southwest 480 552 37,000  Level Gander Center
Tue 12:54:16 PM 55.7833 -62.3833 209° Southwest 470 541 37,000  Level Gander Center
Tue 12:55:16 PM 55.6667 -62.4667 202° Southwest 480 552 37,000  Level Gander Center
Tue 12:56:16 PM 55.5500 -62.5833 210° Southwest 480 552 37,000  Level Gander Center
Tue 12:57:16 PM 55.4333 -62.7000 210° Southwest 480 552 37,000 -200 Level Gander Center
Tue 12:58:16 PM 55.3167 -62.7833 202° Southwest 480 552 36,600 -496 Descending Gander Center
Tue 12:59:17 PM 55.1833 -62.8833 203° Southwest 480 552 36,000 -298 Descending Gander Center
Tue 01:00:17 PM 55.0667 -63.0000 210° Southwest 470 541 36,000  Level Gander Center
Tue 01:01:16 PM 54.9500 -63.1167 210° Southwest 480 552 36,000  Level Gander Center
Tue 01:02:16 PM 54.8333 -63.2000 202° Southwest 470 541 36,000  Level Gander Center
Tue 01:03:17 PM 54.7167 -63.3000 206° Southwest 470 541 36,000  Level Gander Center
Tue 01:05:10 PM 54.4833 -63.4833 205° Southwest 470 541 36,000  Level Moncton Center
Tue 01:06:10 PM 54.3667 -63.6000 210° Southwest 470 541 36,000  Level Moncton Center
Tue 01:07:10 PM 54.2500 -63.6833 203° Southwest 480 552 36,000  Level Moncton Center
Tue 01:08:10 PM 54.1333 -63.7667 203° Southwest 470 541 36,000  Level Moncton Center
Tue 01:09:10 PM 54.0167 -63.8833 210° Southwest 480 552 36,000  Level Moncton Center
Tue 01:10:10 PM 53.9000 -63.9667 203° Southwest 480 552 36,000  Level Moncton Center
Tue 01:11:10 PM 53.7667 -64.0833 207° Southwest 470 541 36,000  Level Moncton Center
Tue 01:12:10 PM 53.6500 -64.1667 203° Southwest 460 529 36,000  Level Moncton Center
Tue 01:13:16 PM 53.5333 -64.2833 211° Southwest 480 552 36,000  Level Gander Center
Tue 01:15:10 PM 53.3167 -64.4833 209° Southwest 470 541 36,000  Level Moncton Center
Tue 01:16:10 PM 53.1833 -64.5667 201° Southwest 470 541 36,000  Level Moncton Center
Tue 01:17:10 PM 53.0833 -64.6833 215° Southwest 460 529 36,000  Level Moncton Center
Tue 01:18:10 PM 52.9500 -64.7833 204° Southwest 470 541 36,000  Level Moncton Center
Tue 01:19:10 PM 52.8500 -64.8667 207° Southwest 470 541 36,000  Level Moncton Center
Tue 01:20:10 PM 52.7333 -65.0000 215° Southwest 470 541 36,000  Level Moncton Center
Tue 01:21:10 PM 52.6167 -65.0833 203° Southwest 470 541 36,000  Level Moncton Center
Tue 01:22:10 PM 52.5000 -65.2000 211° Southwest 470 541 36,000  Level Moncton Center
Tue 01:23:10 PM 52.3833 -65.3000 208° Southwest 470 541 36,000  Level Moncton Center
Tue 01:24:10 PM 52.2667 -65.3833 204° Southwest 470 541 36,000  Level Moncton Center
Tue 01:25:10 PM 52.1500 -65.4833 208° Southwest 470 541 36,000  Level Moncton Center
Tue 01:26:10 PM 52.0333 -65.6000 212° Southwest 470 541 36,000  Level Moncton Center
Tue 01:27:10 PM 51.9167 -65.6667 199° South 470 541 36,000  Level Moncton Center
Tue 01:28:10 PM 51.8000 -65.7500 204° Southwest 480 552 36,000  Level Moncton Center
Tue 01:29:10 PM 51.6667 -65.8000 193° South 480 552 36,000  Level Moncton Center
Tue 01:30:10 PM 51.5167 -65.8500 192° South 480 552 36,000  Level Moncton Center
Tue 01:31:10 PM 51.3833 -65.8667 184° South 480 552 36,000  Level Moncton Center
Tue 01:32:10 PM 51.2500 -65.9167 193° South 480 552 36,000  Level Moncton Center
Tue 01:33:10 PM 51.1333 -65.9667 195° South 480 552 36,000  Level Moncton Center
Tue 01:34:10 PM 50.9833 -66.0167 192° South 480 552 36,000  Level Moncton Center
Tue 01:35:10 PM 50.8667 -66.0667 195° South 480 552 36,000  Level Moncton Center
Tue 01:36:10 PM 50.7333 -66.0833 185° South 480 552 36,000  Level Moncton Center
Tue 01:37:10 PM 50.6000 -66.1333 193° South 480 552 36,000  Level Moncton Center
Tue 01:38:10 PM 50.4833 -66.1833 195° South 480 552 36,000  Level Moncton Center
Tue 01:39:10 PM 50.3333 -66.2333 192° South 480 552 36,000  Level Moncton Center
Tue 01:40:10 PM 50.2167 -66.2833 195° South 480 552 36,000  Level Moncton Center
Tue 01:41:10 PM 50.1000 -66.3500 200° South 470 541 36,000  Level Moncton Center
Tue 01:42:10 PM 49.9667 -66.4333 202° Southwest 470 541 36,000  Level Moncton Center
Tue 01:43:10 PM 49.8333 -66.4667 189° South 470 541 36,000  Level Moncton Center
Tue 01:44:10 PM 49.7167 -66.5500 205° Southwest 470 541 36,000  Level Moncton Center
Tue 01:45:10 PM 49.5833 -66.6167 198° South 470 541 36,000  Level Moncton Center
Tue 01:46:10 PM 49.4833 -66.6833 203° Southwest 470 541 36,000  Level Moncton Center
Tue 01:47:10 PM 49.3500 -66.7667 202° Southwest 460 529 36,000  Level Moncton Center
Tue 01:48:10 PM 49.2333 -66.8333 200° South 470 541 36,000  Level Moncton Center
Tue 01:49:10 PM 49.1000 -66.8833 194° South 470 541 36,000  Level Moncton Center
Tue 01:50:10 PM 48.9833 -66.9500 201° Southwest 470 541 36,000  Level Moncton Center
Tue 01:51:10 PM 48.8667 -67.0167 201° Southwest 470 541 36,000  Level Moncton Center
Tue 01:52:10 PM 48.7333 -67.0833 198° South 470 541 36,000  Level Moncton Center
Tue 01:53:10 PM 48.6167 -67.1500 201° Southwest 470 541 36,000  Level Moncton Center
Tue 01:58:59 PM 47.9100 -67.5254 199° South 465 535 36,000  Level FlightAware ADS-B
Tue 01:59:53 PM 47.8010 -67.5812 199° South 464 534 36,000  Level FlightAware ADS-B
Tue 02:00:33 PM 47.7214 -67.6217 199° South 463 533 36,000  Level FlightAware ADS-B
Tue 02:01:51 PM 47.5599 -67.7037 199° South 464 534 36,000  Level FlightAware ADS-B
Tue 02:02:48 PM 47.4448 -67.7618 199° South 467 537 36,000  Level FlightAware ADS-B
Tue 02:03:25 PM 47.3692 -67.7999 199° South 469 540 36,000  Level FlightAware ADS-B
Tue 02:03:58 PM 47.3030 -67.8330 199° South 471 542 36,000  Level FlightAware ADS-B
Tue 02:04:49 PM 47.1957 -67.8866 199° South 472 543 36,000  Level FlightAware ADS-B
Tue 02:05:26 PM 47.1188 -67.9248 199° South 468 539 36,000  Level FlightAware ADS-B
Tue 02:06:29 PM 46.9928 -67.9870 199° South 466 536 36,000  Level FlightAware ADS-B
Tue 02:07:04 PM 46.9200 -68.0230 199° South 463 533 36,000  Level FlightAware ADS-B
Tue 02:07:46 PM 46.8338 -68.0654 199° South 465 535 36,000  Level FlightAware ADS-B
Tue 02:08:27 PM 46.7531 -68.1049 198° South 465 535 36,000  Level FlightAware ADS-B
Tue 02:09:19 PM 46.6452 -68.1493 195° South 465 535 36,000  Level FlightAware ADS-B
Tue 02:09:51 PM 46.5780 -68.1767 196° South 462 532 36,000  Level FlightAware ADS-B
Tue 02:10:23 PM 46.5113 -68.2041 196° South 460 529 36,000  Level FlightAware ADS-B
Tue 02:10:59 PM 46.4404 -68.2333 196° South 454 522 36,000  Level FlightAware ADS-B
Tue 02:11:32 PM 46.3721 -68.2614 196° South 452 520 36,000  Level FlightAware ADS-B
Tue 02:12:04 PM 46.3090 -68.2874 196° South 449 517 36,000  Level FlightAware ADS-B
Tue 02:12:36 PM 46.2451 -68.3137 196° South 449 517 36,000  Level FlightAware ADS-B
Tue 02:13:07 PM 46.1842 -68.3387 196° South 451 519 36,000  Level FlightAware ADS-B
Tue 02:13:52 PM 46.0939 -68.3757 196° South 451 519 36,000  Level FlightAware ADS-B
Tue 02:14:28 PM 46.0225 -68.4048 196° South 450 518 36,000  Level FlightAware ADS-B
Tue 02:15:08 PM 45.9408 -68.4377 196° South 448 516 36,000  Level FlightAware ADS-B
Tue 02:15:48 PM 45.8627 -68.4692 196° South 447 514 36,000  Level FlightAware ADS-B
Tue 02:16:36 PM 45.7683 -68.5072 196° South 429 494 36,000  Level FlightAware ADS-B
Tue 02:17:06 PM 45.7193 -68.5269 196° South 421 484 36,000  Level FlightAware ADS-B
Tue 02:17:39 PM 45.6512 -68.5544 196° South 417 480 36,000  Level FlightAware ADS-B
Tue 02:18:09 PM 45.5951 -68.5769 196° South 417 480 36,000  Level FlightAware ADS-B
Tue 02:18:55 PM 45.5084 -68.6115 196° South 417 480 36,000  Level FlightAware ADS-B
Tue 02:19:25 PM 45.4530 -68.6335 196° South 415 478 36,000  Level FlightAware ADS-B
Tue 02:19:55 PM 45.3979 -68.6554 196° South 413 475 36,000  Level FlightAware ADS-B
Tue 02:20:27 PM 45.3393 -68.6786 196° South 415 478 36,000  Level FlightAware ADS-B
Tue 02:20:57 PM 45.2844 -68.7004 196° South 417 480 36,000  Level FlightAware ADS-B
Tue 02:21:28 PM 45.2251 -68.7238 196° South 421 484 36,000  Level FlightAware ADS-B
Tue 02:22:00 PM 45.1658 -68.7472 196° South 423 487 36,000  Level FlightAware ADS-B
Tue 02:22:32 PM 45.1074 -68.7702 195° South 425 489 36,000  Level FlightAware ADS-B
Tue 02:23:04 PM 45.0580 -68.7896 196° South 428 493 36,000  Level FlightAware ADS-B
Tue 02:23:35 PM 44.9865 -68.8176 196° South 429 494 36,000  Level FlightAware ADS-B
Tue 02:23:55 PM 44.9479 -68.8327 195° South 428 493 36,000  Level FlightAware ADS-B
Tue 02:24:35 PM 44.8724 -68.8622 196° South 422 486 36,000  Level FlightAware ADS-B
Tue 02:25:06 PM 44.8156 -68.8912 203° Southwest 411 473 36,000  Level FlightAware ADS-B
Tue 02:25:36 PM 44.7658 -68.9250 207° Southwest 406 467 36,000  Level FlightAware ADS-B
Tue 02:26:13 PM 44.7033 -68.9685 206° Southwest 409 471 36,000  Level FlightAware ADS-B
Tue 02:26:44 PM 44.6525 -69.0034 206° Southwest 410 472 36,000  Level FlightAware ADS-B
Tue 02:27:15 PM 44.5976 -69.0407 206° Southwest 410 472 36,000  Level FlightAware ADS-B
Tue 02:27:48 PM 44.5463 -69.0755 206° Southwest 409 471 36,000  Level FlightAware ADS-B
Tue 02:28:20 PM 44.4885 -69.1146 206° Southwest 409 471 36,000  Level FlightAware ADS-B
Tue 02:28:50 PM 44.4353 -69.1504 206° Southwest 408 470 36,000  Level FlightAware ADS-B
Tue 02:29:20 PM 44.3850 -69.1843 206° Southwest 408 470 36,000  Level FlightAware ADS-B
Tue 02:29:51 PM 44.3319 -69.2201 206° Southwest 407 468 36,000  Level FlightAware ADS-B
Tue 02:30:22 PM 44.2871 -69.2501 206° Southwest 404 465 36,000  Level FlightAware ADS-B
Tue 02:30:53 PM 44.2284 -69.2894 206° Southwest 397 457 36,000  Level FlightAware ADS-B
Tue 02:31:24 PM 44.1820 -69.3204 206° Southwest 394 453 36,000  Level FlightAware ADS-B
Tue 02:32:07 PM 44.1064 -69.3711 206° Southwest 395 455 36,000  Level FlightAware ADS-B
Tue 02:32:38 PM 44.0555 -69.4049 206° Southwest 395 455 36,000  Level FlightAware ADS-B
Tue 02:33:21 PM 43.9873 -69.4503 206° Southwest 392 451 36,000  Level FlightAware ADS-B
Tue 02:33:53 PM 43.9358 -69.4843 206° Southwest 385 443 36,000  Level FlightAware ADS-B (EPKK / KRK)
Tue 02:34:31 PM 43.8759 -69.5240 205° Southwest 380 437 36,000  Level FlightAware ADS-B
Tue 02:35:14 PM 43.8530 -69.5390 206° Southwest 377 434 36,000  Level FlightAware ADS-B
Tue 02:35:49 PM 43.7501 -69.6069 206° Southwest 377 434 36,000  Level FlightAware ADS-B
Tue 02:36:53 PM 43.6521 -69.6713 206° Southwest 377 434 36,000  Level FlightAware ADS-B (EPKK / KRK)
Tue 02:37:32 PM 43.5891 -69.7124 205° Southwest 375 432 36,000  Level FlightAware ADS-B (EPKK / KRK)
Tue 02:38:36 PM 43.4973 -69.7723 205° Southwest 375 432 36,000  Level FlightAware ADS-B (EPKK / KRK)
Tue 02:39:12 PM 43.4302 -69.8136 200° South 383 441 36,000  Level FlightAware ADS-B
Tue 02:39:30 PM 43.4012 -69.8264 196° South 389 448 36,000  Level FlightAware ADS-B (EPKK / KRK)
Tue 02:40:02 PM 43.3475 -69.8430 189° South 399 459 36,000  Level FlightAware ADS-B (EPKK / KRK)
Tue 02:40:34 PM 43.2840 -69.8534 187° South 403 464 36,000  Level FlightAware ADS-B
Tue 02:41:09 PM 43.2207 -69.8637 187° South 401 461 36,000  Level FlightAware ADS-B (EPKK / KRK)
Tue 02:41:49 PM 43.1478 -69.8749 186° South 397 457 36,000  Level FlightAware ADS-B
Tue 02:42:19 PM 43.0919 -69.8833 186° South 397 457 36,000  Level FlightAware ADS-B
Tue 02:42:50 PM 43.0383 -69.8910 186° South 395 455 36,000  Level FlightAware ADS-B (EPKK / KRK)
Tue 02:43:28 PM 42.9662 -69.9015 186° South 395 455 36,000  Level FlightAware ADS-B (EPKK / KRK)
Tue 02:44:11 PM 42.8932 -69.9121 186° South 397 457 36,000  Level FlightAware ADS-B (EPKK / KRK)
Tue 02:44:52 PM 42.8165 -69.9232 186° South 398 458 36,000  Level FlightAware ADS-B (EPKK / KRK)
Tue 02:45:31 PM 42.7424 -69.9339 186° South 401 461 36,000  Level FlightAware ADS-B (EPKK / KRK)
Tue 02:46:02 PM 42.6842 -69.9423 186° South 401 461 36,000  Level FlightAware ADS-B (EPKK / KRK)
Tue 02:46:34 PM 42.6243 -69.9510 186° South 400 460 36,000  Level FlightAware ADS-B (EPKK / KRK)
Tue 02:47:18 PM 42.5449 -69.9622 186° South 394 453 36,000  Level FlightAware ADS-B (EPKK / KRK)
Tue 02:47:58 PM 42.4709 -69.9729 186° South 396 456 36,000  Level FlightAware ADS-B (EPKK / KRK)
Tue 02:48:29 PM 42.4180 -69.9805 186° South 396 456 36,000  Level FlightAware ADS-B (EPKK / KRK)
Tue 02:49:04 PM 42.3518 -69.9899 186° South 392 451 36,000  Level FlightAware ADS-B (EPKK / KRK)
Tue 02:49:34 PM 42.2974 -69.9976 186° South 391 450 36,000  Level FlightAware ADS-B (EPKK / KRK)
Tue 02:50:05 PM 42.2437 -70.0053 186° South 391 450 36,000  Level FlightAware ADS-B (EPKK / KRK)
Tue 02:50:45 PM 42.1718 -70.0155 186° South 389 448 36,000  Level FlightAware ADS-B (EPKK / KRK)
Tue 02:51:19 PM 42.1353 -70.0227 194° South 375 432 36,000  Level FlightAware ADS-B (KOWD)
Tue 02:51:50 PM 42.0623 -70.0520 201° Southwest 363 418 36,000  Level FlightAware ADS-B (EPKK / KRK)
Tue 02:52:29 PM 42.0055 -70.0898 208° Southwest 356 410 36,000  Level FlightAware ADS-B (EPKK / KRK)
Tue 02:53:10 PM 41.9562 -70.1363 220° Southwest 340 391 36,000  Level FlightAware ADS-B (KOWD)
Tue 02:53:52 PM 41.9103 -70.1951 228° Southwest 335 386 36,000  Level FlightAware ADS-B (EPKK / KRK)
Tue 02:54:28 PM 41.8673 -70.2581 227° Southwest 336 387 36,000  Level FlightAware ADS-B (EPKK / KRK)
Tue 02:55:00 PM 41.8342 -70.3061 227° Southwest 337 388 36,000  Level FlightAware ADS-B (KOWD)
Tue 02:55:33 PM 41.7980 -70.3589 227° Southwest 338 389 36,000  Level FlightAware ADS-B (EPKK / KRK)
Tue 02:56:13 PM 41.7705 -70.3989 227° Southwest 338 389 36,000  Level FlightAware ADS-B (EPKK / KRK)
Tue 02:56:51 PM 41.7447 -70.4364 228° Southwest 340 391 36,000  Level FlightAware ADS-B (EPKK / KRK)
Tue 02:57:24 PM 41.7000 -70.5016 227° Southwest 338 389 36,000  Level FlightAware ADS-B (EPKK / KRK)
Tue 02:57:58 PM 41.6454 -70.5807 227° Southwest 338 389 36,000  Level FlightAware ADS-B (KOWD)
Tue 02:58:36 PM 41.6051 -70.6388 227° Southwest 335 386 36,000  Level FlightAware ADS-B (KOWD)
Tue 02:59:10 PM 41.5703 -70.6893 227° Southwest 335 386 36,000  Level FlightAware ADS-B (KOWD)
Tue 02:59:47 PM 41.5307 -70.7461 227° Southwest 335 386 36,000  Level FlightAware ADS-B (KOWD)
Tue 03:02:37 PM 41.3688 -70.9784 227° Southwest 338 389 36,000  Level FlightAware ADS-B (KOWD)
Tue 03:07:09 PM 41.1355 -71.4716 228° Southwest 334 384 36,000  Level FlightAware ADS-B (KSNC)
Tue 03:08:03 PM 41.0798 -71.5525 228° Southwest 333 383 36,000  Level FlightAware ADS-B (KSNC)
Tue 03:08:41 PM 41.0370 -71.6142 227° Southwest 333 383 36,000  Level FlightAware ADS-B (KSNC)
Tue 03:09:15 PM 41.0023 -71.6640 227° Southwest 333 383 36,000  Level FlightAware ADS-B (KSNC)
Tue 03:10:11 PM 40.9429 -71.7490 227° Southwest 335 386 36,000  Level FlightAware ADS-B (KSNC)
Tue 03:11:16 PM 40.8899 -71.8245 227° Southwest 335 386 36,000  Level FlightAware ADS-B (KSNC)
Tue 03:11:48 PM 40.8403 -71.8951 227° Southwest 335 386 36,000  Level FlightAware ADS-B (KSNC)
Tue 03:12:22 PM 40.8075 -71.9417 227° Southwest 336 387 36,000  Level FlightAware ADS-B (KSNC)
Tue 03:12:59 PM 40.7650 -72.0019 227° Southwest 337 388 36,000  Level FlightAware ADS-B (KSNC)
Tue 03:13:41 PM 40.7314 -72.0490 227° Southwest 336 387 36,000  Level FlightAware ADS-B (KSNC)
Tue 03:14:18 PM 40.6814 -72.1201 227° Southwest 338 389 36,000  Level FlightAware ADS-B (KSNC)
Tue 03:15:01 PM 40.6361 -72.1843 227° Southwest 338 389 36,000  Level FlightAware ADS-B (KSNC)
Tue 03:15:31 PM 40.6073 -72.2248 227° Southwest 340 391 36,000  Level FlightAware ADS-B (KSNC)
Tue 03:16:11 PM 40.5607 -72.2904 227° Southwest 342 394 36,000  Level FlightAware ADS-B (KSNC)
Tue 03:16:49 PM 40.5193 -72.3485 227° Southwest 345 397 36,000  Level FlightAware ADS-B (KSNC)
Tue 03:17:20 PM 40.4869 -72.3939 227° Southwest 345 397 36,000  Level FlightAware ADS-B (KSNC)
Tue 03:17:59 PM 40.4437 -72.4543 227° Southwest 345 397 36,000  Level FlightAware ADS-B (KSNC)
Tue 03:18:30 PM 40.4100 -72.5013 227° Southwest 345 397 36,000  Level FlightAware ADS-B (KSNC)
Tue 03:19:14 PM 40.3617 -72.5686 227° Southwest 347 399 36,000  Level FlightAware ADS-B (KSNC)
Tue 03:19:45 PM 40.3276 -72.6159 227° Southwest 347 399 36,000  Level FlightAware ADS-B (KSNC)
Tue 03:20:16 PM 40.2933 -72.6638 227° Southwest 349 402 36,000  Level FlightAware ADS-B (KSNC)
Tue 03:20:52 PM 40.2566 -72.7148 227° Southwest 349 402 36,000  Level FlightAware ADS-B (KSNC)
Tue 03:21:22 PM 40.2208 -72.7643 227° Southwest 350 403 36,000  Level FlightAware ADS-B (KSNC)
Tue 03:22:02 PM 40.1767 -72.8254 227° Southwest 352 405 36,000  Level FlightAware ADS-B (KSNC)
Tue 03:22:34 PM 40.1415 -72.8738 227° Southwest 354 407 36,000  Level FlightAware ADS-B (KSNC)
Tue 03:23:06 PM 40.1040 -72.9254 227° Southwest 354 407 36,000  Level FlightAware ADS-B (KSNC)
Tue 03:23:45 PM 40.0606 -72.9850 227° Southwest 356 410 36,000  Level FlightAware ADS-B (KSNC)
Tue 03:24:55 PM 39.9808 -73.0944 227° Southwest 357 411 36,000  Level FlightAware ADS-B (KSNC)
Tue 03:25:29 PM 39.9427 -73.1464 226° Southwest 359 413 36,000  Level FlightAware ADS-B (KSNC)
Tue 03:25:59 PM 39.9077 -73.1942 227° Southwest 361 415 36,000  Level FlightAware ADS-B
Tue 03:26:37 PM 39.8639 -73.2539 226° Southwest 362 417 36,000  Level FlightAware ADS-B (KSNC)
Tue 03:27:16 PM 39.8185 -73.3157 226° Southwest 364 419 36,000  Level FlightAware ADS-B (KSNC)
Tue 03:27:46 PM 39.7895 -73.3551 226° Southwest 365 420 36,000  Level FlightAware ADS-B (KSNC)
Tue 03:28:29 PM 39.7388 -73.4238 226° Southwest 368 423 36,000  Level FlightAware ADS-B (KSNC)
Tue 03:28:59 PM 39.6991 -73.4775 226° Southwest 370 426 36,000  Level FlightAware ADS-B (KSNC)
Tue 03:29:36 PM 39.6543 -73.5380 226° Southwest 371 427 36,000  Level FlightAware ADS-B
Tue 03:30:19 PM 39.5984 -73.6010 214° Southwest 372 428 36,000  Level FlightAware ADS-B
Tue 03:30:55 PM 39.5463 -73.6468 215° Southwest 375 432 36,000  Level FlightAware ADS-B
Tue 03:31:10 PM 39.5249 -73.6657 214° Southwest 376 433 36,000  Level FlightAware ADS-B
Tue 03:31:44 PM 39.4769 -73.7083 214° Southwest 377 434 36,000  Level FlightAware ADS-B (KSNC)
Tue 03:32:14 PM 39.4340 -73.7460 214° Southwest 378 435 36,000  Level FlightAware ADS-B
Tue 03:32:57 PM 39.3706 -73.8016 214° Southwest 378 435 36,000  Level FlightAware ADS-B
Tue 03:33:08 PM 39.3558 -73.8146 215° Southwest 372 428 36,000  Level FlightAware ADS-B (KWWD)
Tue 03:34:16 PM 39.2563 -73.9019 215° Southwest 372 428 36,000  Level FlightAware ADS-B (KWWD)
Tue 03:34:49 PM 39.2092 -73.9432 215° Southwest 373 429 36,000  Level FlightAware ADS-B (KWWD)
Tue 03:35:26 PM 39.1582 -73.9877 215° Southwest 376 433 36,000  Level FlightAware ADS-B (KWWD)
Tue 03:35:59 PM 39.1070 -74.0324 215° Southwest 377 434 36,000  Level FlightAware ADS-B (KWWD)
Tue 03:36:36 PM 39.0521 -74.0803 215° Southwest 378 435 36,000  Level FlightAware ADS-B (KWWD)
Tue 03:37:10 PM 39.0028 -74.1232 214° Southwest 385 443 36,000  Level FlightAware ADS-B (KWWD)
Tue 03:37:49 PM 38.9451 -74.1733 214° Southwest 387 445 36,000  Level FlightAware ADS-B (KWWD)
Tue 03:38:29 PM 38.8848 -74.2256 214° Southwest 388 447 36,000  Level FlightAware ADS-B (KWWD)
Tue 03:38:59 PM 38.8413 -74.2632 214° Southwest 389 448 36,000  Level FlightAware ADS-B (KWWD)
Tue 03:39:39 PM 38.7815 -74.3149 214° Southwest 389 448 36,000  Level FlightAware ADS-B (KWWD)
Tue 03:40:19 PM 38.7216 -74.3666 214° Southwest 391 450 36,000  Level FlightAware ADS-B (KWWD)
Tue 03:40:49 PM 38.6763 -74.4056 214° Southwest 391 450 36,000  Level FlightAware ADS-B (KWWD)
Tue 03:41:28 PM 38.6175 -74.4559 214° Southwest 390 449 36,000  Level FlightAware ADS-B (KWWD)
Tue 03:41:59 PM 38.5721 -74.4949 214° Southwest 391 450 36,000  Level FlightAware ADS-B (KWWD)
Tue 03:42:35 PM 38.5169 -74.5421 214° Southwest 393 452 36,000  Level FlightAware ADS-B (KWWD)
Tue 03:43:09 PM 38.4659 -74.5856 215° Southwest 388 447 36,000  Level FlightAware ADS-B (KWWD)
Tue 03:43:39 PM 38.4210 -74.6239 215° Southwest 388 447 36,000  Level FlightAware ADS-B (KWWD)
Tue 03:44:16 PM 38.3640 -74.6725 214° Southwest 389 448 36,000  Level FlightAware ADS-B (KWWD)
Tue 03:44:50 PM 38.3123 -74.7163 214° Southwest 390 449 36,000  Level FlightAware ADS-B (KWWD)
Tue 03:45:20 PM 38.2670 -74.7547 214° Southwest 391 450 36,000  Level FlightAware ADS-B (KWWD)
Tue 03:45:53 PM 38.2169 -74.7972 214° Southwest 393 452 36,000  Level FlightAware ADS-B (KWWD)
Tue 03:47:06 PM 38.1037 -74.8928 214° Southwest 395 455 36,000  Level FlightAware ADS-B (KWWD)
Tue 03:48:13 PM 38.0002 -74.9798 214° Southwest 403 464 36,000  Level FlightAware ADS-B (KWWD)
Tue 03:48:47 PM 37.9472 -75.0243 214° Southwest 403 464 36,000  Level FlightAware ADS-B (KWWD)
Tue 03:49:39 PM 37.8657 -75.0926 214° Southwest 406 467 36,000  Level FlightAware ADS-B (KWWD)
Tue 03:50:19 PM 37.8039 -75.1442 214° Southwest 407 468 36,000  Level FlightAware ADS-B (KWWD)
Tue 03:50:52 PM 37.7511 -75.1883 214° Southwest 407 468 36,000  Level FlightAware ADS-B (KWWD)
Tue 03:52:05 PM 37.6358 -75.2842 214° Southwest 408 470 36,000  Level FlightAware ADS-B (KWWD)
Tue 03:52:36 PM 37.5865 -75.3251 214° Southwest 408 470 36,000  Level FlightAware ADS-B (KWWD)
Tue 03:53:58 PM 37.4764 -75.4192 214° Southwest 421 484 36,000  Level Washington Center
Tue 03:54:56 PM 37.3825 -75.4978 214° Southwest 421 484 36,000  Level Washington Center
Tue 03:55:57 PM 37.2867 -75.5761 213° Southwest 421 484 36,000  Level Washington Center
Tue 03:56:58 PM 37.1908 -75.6544 213° Southwest 421 484 36,000  Level Washington Center
Tue 03:57:56 PM 37.0947 -75.7325 213° Southwest 421 484 36,000  Level Washington Center
Tue 03:58:57 PM 36.9967 -75.8025 210° Southwest 421 484 36,000  Level Washington Center
Tue 03:59:59 PM 36.8839 -75.8594 202° Southwest 416 479 36,000  Level Washington Center
Tue 04:00:57 PM 36.7753 -75.9161 203° Southwest 422 486 36,000  Level Washington Center
Tue 04:01:58 PM 36.6539 -75.9803 203° Southwest 432 497 36,000  Level Washington Center
Tue 04:02:58 PM 36.5475 -76.0392 204° Southwest 432 497 36,000  Level Washington Center
Tue 04:03:56 PM 36.4386 -76.0953 203° Southwest 432 497 36,000  Level Washington Center
Tue 04:04:57 PM 36.3300 -76.1514 203° Southwest 432 497 36,000  Level Washington Center
Tue 04:05:57 PM 36.2192 -76.2100 203° Southwest 432 497 36,000  Level Washington Center
Tue 04:06:58 PM 36.1042 -76.2681 202° Southwest 439 505 36,000  Level Washington Center
Tue 04:07:58 PM 35.9931 -76.3211 201° Southwest 439 505 36,000  Level Washington Center
Tue 04:08:58 PM 35.8822 -76.3817 204° Southwest 439 505 36,000  Level Washington Center
Tue 04:09:56 PM 35.7692 -76.4369 202° Southwest 439 505 36,000  Level Washington Center
Tue 04:10:56 PM 35.6581 -76.4944 203° Southwest 439 505 36,000  Level Washington Center
Tue 04:11:57 PM 35.5431 -76.5519 202° Southwest 439 505 36,000  Level Washington Center
Tue 04:12:58 PM 35.4339 -76.6117 204° Southwest 439 505 36,000  Level Washington Center
Tue 04:13:56 PM 35.3208 -76.6664 202° Southwest 439 505 36,000  Level Washington Center
Tue 04:14:57 PM 35.2117 -76.7208 202° Southwest 439 505 36,000  Level Washington Center
Tue 04:15:58 PM 35.1111 -76.7703 202° Southwest 439 505 36,000  Level Washington Center
Tue 04:16:56 PM 34.9978 -76.8294 203° Southwest 439 505 36,000  Level Washington Center
Tue 04:17:57 PM 34.8806 -76.8858 202° Southwest 444 511 36,000  Level Washington Center
Tue 04:18:59 PM 34.7650 -76.9472 204° Southwest 449 517 36,000  Level Washington Center
Tue 04:19:57 PM 34.6475 -77.0033 201° Southwest 454 522 36,000  Level Washington Center
Tue 04:20:57 PM 34.5319 -77.0644 204° Southwest 454 522 36,000  Level Washington Center
Tue 04:21:58 PM 34.4144 -77.1178 201° Southwest 454 522 36,000  Level Washington Center
Tue 04:22:58 PM 34.2992 -77.1758 203° Southwest 454 522 36,000  Level Washington Center
Tue 04:23:56 PM 34.1836 -77.2339 203° Southwest 454 522 36,000  Level Washington Center
Tue 04:24:57 PM 34.0658 -77.2892 201° Southwest 454 522 36,000  Level Washington Center
Tue 04:25:58 PM 33.9419 -77.3492 202° Southwest 454 522 36,000  Level Washington Center
Tue 04:27:18 PM 33.7847 -77.4256 202° Southwest 469 540 36,000  Level Jacksonville Center
Tue 04:28:18 PM 33.6744 -77.4797 202° Southwest 453 521 36,000  Level Jacksonville Center
Tue 04:29:18 PM 33.5619 -77.5339 202° Southwest 448 516 36,000  Level Jacksonville Center
Tue 04:30:18 PM 33.4517 -77.5881 202° Southwest 442 509 36,000  Level Jacksonville Center
Tue 04:31:18 PM 33.3369 -77.6419 201° Southwest 442 509 36,000  Level Jacksonville Center
Tue 04:32:18 PM 33.2244 -77.6958 202° Southwest 442 509 36,000  Level Jacksonville Center
Tue 04:33:18 PM 33.1119 -77.7519 203° Southwest 442 509 36,000  Level Jacksonville Center
Tue 04:34:18 PM 32.9972 -77.8056 201° Southwest 442 509 36,000  Level Jacksonville Center
Tue 04:35:18 PM 32.8867 -77.8589 202° Southwest 442 509 36,000  Level Jacksonville Center
Tue 04:36:18 PM 32.7719 -77.9122 201° Southwest 442 509 36,000  Level Jacksonville Center
Tue 04:37:18 PM 32.6594 -77.9678 203° Southwest 442 509 36,000  Level Jacksonville Center
Tue 04:38:18 PM 32.5464 -78.0158 200° South 442 509 36,000  Level Jacksonville Center
Tue 04:39:18 PM 32.4317 -78.0711 202° Southwest 442 509 36,000  Level Jacksonville Center
Tue 04:40:18 PM 32.3208 -78.1236 202° Southwest 442 509 36,000  Level Jacksonville Center
Tue 04:41:18 PM 32.2081 -78.1739 201° Southwest 442 509 36,000  Level Jacksonville Center
Tue 04:42:18 PM 32.0975 -78.2308 204° Southwest 442 509 36,000  Level Jacksonville Center
Tue 04:43:18 PM 31.9928 -78.2803 202° Southwest 448 516 36,000  Level Jacksonville Center
Tue 04:44:18 PM 31.8842 -78.3322 202° Southwest 441 507 36,000  Level Jacksonville Center
Tue 04:45:18 PM 31.7731 -78.3817 201° Southwest 441 507 36,000  Level Jacksonville Center
Tue 04:46:18 PM 31.6581 -78.4361 202° Southwest 441 507 36,000  Level Jacksonville Center
Tue 04:47:18 PM 31.5472 -78.4878 202° Southwest 441 507 36,000  Level Jacksonville Center
Tue 04:48:18 PM 31.4300 -78.5419 202° Southwest 436 502 36,000  Level Jacksonville Center
Tue 04:49:18 PM 31.3231 -78.5858 199° South 436 502 36,000  Level Jacksonville Center
Tue 04:50:18 PM 31.2122 -78.6419 203° Southwest 436 502 36,000  Level Jacksonville Center
Tue 04:51:18 PM 31.0992 -78.6908 200° South 436 502 36,000  Level Jacksonville Center
Tue 04:52:18 PM 30.9758 -78.7494 202° Southwest 437 503 36,000  Level Jacksonville Center
Tue 04:53:18 PM 30.8606 -78.8006 201° Southwest 441 507 36,000  Level Jacksonville Center
Tue 04:54:18 PM 30.7450 -78.8489 200° South 439 505 36,000  Level Jacksonville Center
Tue 04:55:18 PM 30.6300 -78.9022 202° Southwest 440 506 36,000  Level Jacksonville Center
Tue 04:56:07 PM 30.5489 -78.9403 202° Southwest 434 499 36,000  Level Miami Center
Tue 04:57:09 PM 30.4369 -78.9900 201° Southwest 431 496 36,000  Level Miami Center
Tue 04:58:11 PM 30.3236 -79.0408 201° Southwest 432 497 36,000  Level Miami Center
Tue 04:59:13 PM 30.2111 -79.0892 200° South 432 497 36,000  Level Miami Center
Tue 05:00:15 PM 30.0997 -79.1367 200° South 430 495 36,000  Level Miami Center
Tue 05:01:18 PM 29.9758 -79.1900 200° South 424 488 36,000  Level Miami Center
Tue 05:02:20 PM 29.8633 -79.2389 201° Southwest 429 494 36,000  Level Miami Center
Tue 05:03:22 PM 29.7525 -79.2869 201° Southwest 429 494 36,000  Level Miami Center
Tue 05:04:24 PM 29.6192 -79.3453 201° Southwest 427 491 36,000  Level Miami Center
Tue 05:05:27 PM 29.5053 -79.3878 198° South 427 491 36,000  Level Miami Center
Tue 05:10:49 PM 28.9090 -79.6070 198° South 423 487 36,000  Level FlightAware ADS-B
Tue 05:11:30 PM 28.8116 -79.6430 198° South 421 484 36,000 240 Level FlightAware ADS-B
Tue 05:12:29 PM 28.7071 -79.6815 198° South 422 486 36,400 714 Climbing FlightAware ADS-B
Tue 05:14:18 PM 28.5014 -79.7569 198° South 418 481 38,000 686 Climbing FlightAware ADS-B
Tue 05:14:49 PM 28.4469 -79.7767 198° South 415 478 38,000  Level FlightAware ADS-B
Tue 05:15:30 PM 28.3692 -79.8052 198° South 416 479 38,000  Level FlightAware ADS-B
Tue 05:16:00 PM 28.3199 -79.8232 198° South 416 479 38,000  Level FlightAware ADS-B
Tue 05:16:48 PM 28.2266 -79.8572 198° South 415 478 38,000  Level FlightAware ADS-B
Tue 05:17:46 PM 28.1206 -79.8957 198° South 416 479 38,000  Level FlightAware ADS-B
Tue 05:18:48 PM 28.0055 -79.9375 198° South 417 480 38,000  Level FlightAware ADS-B
Tue 05:19:20 PM 27.9466 -79.9589 198° South 417 480 38,000  Level FlightAware ADS-B
Tue 05:20:00 PM 27.8742 -79.9851 198° South 419 482 38,000  Level FlightAware ADS-B
Tue 05:20:30 PM 27.8205 -80.0045 198° South 419 482 38,000  Level FlightAware ADS-B
Tue 05:21:10 PM 27.7491 -80.0302 198° South 417 480 38,000  Level FlightAware ADS-B
Tue 05:21:50 PM 27.6704 -80.0586 198° South 417 480 38,000  Level FlightAware ADS-B
Tue 05:22:39 PM 27.5873 -80.0885 198° South 421 484 38,000  Level FlightAware ADS-B
Tue 05:23:09 PM 27.5253 -80.1109 198° South 422 486 38,000  Level FlightAware ADS-B
Tue 05:23:40 PM 27.4675 -80.1315 198° South 421 484 38,000  Level FlightAware ADS-B
Tue 05:24:19 PM 27.3966 -80.1569 198° South 422 486 38,000  Level FlightAware ADS-B
Tue 05:24:53 PM 27.3307 -80.1806 198° South 425 489 38,000  Level FlightAware ADS-B
Tue 05:25:30 PM 27.2628 -80.2049 198° South 428 493 38,000  Level FlightAware ADS-B
Tue 05:26:09 PM 27.1887 -80.2313 198° South 430 495 38,000  Level FlightAware ADS-B
Tue 05:27:08 PM 27.0855 -80.2680 198° South 429 494 38,000  Level FlightAware ADS-B
Tue 05:27:59 PM 26.9777 -80.3064 198° South 428 493 38,000  Level FlightAware ADS-B
Tue 05:29:29 PM 26.8212 -80.3620 198° South 427 491 38,000  Level FlightAware ADS-B
Tue 05:29:59 PM 26.7517 -80.3867 198° South 427 491 38,000  Level FlightAware ADS-B
Tue 05:30:29 PM 26.6945 -80.4068 198° South 427 491 38,000  Level FlightAware ADS-B
Tue 05:31:26 PM 26.5978 -80.4409 198° South 426 490 38,000  Level FlightAware ADS-B
Tue 05:31:59 PM 26.5317 -80.4642 198° South 424 488 38,000  Level FlightAware ADS-B
Tue 05:32:29 PM 26.4709 -80.4857 198° South 425 489 38,000  Level FlightAware ADS-B
Tue 05:33:10 PM 26.3996 -80.5108 198° South 426 490 38,000  Level FlightAware ADS-B
Tue 05:34:28 PM 26.2717 -80.5556 198° South 424 488 38,000  Level Miami Center
Tue 05:35:30 PM 26.1353 -80.6028 197° South 429 494 38,000  Level Miami Center
Tue 05:36:32 PM 26.0214 -80.6433 198° South 430 495 38,000  Level Miami Center
Tue 05:37:35 PM 25.9067 -80.6825 197° South 429 494 38,000  Level Miami Center
Tue 05:38:37 PM 25.7975 -80.7222 198° South 424 488 38,000  Level Miami Center
Tue 05:39:39 PM 25.6650 -80.7706 198° South 424 488 38,000  Level Miami Center
Tue 05:40:41 PM 25.5700 -80.8297 209° Southwest 403 464 38,000  Level Miami Center
Tue 05:41:43 PM 25.4869 -80.9078 220° Southwest 396 456 38,000  Level Miami Center
Tue 05:42:45 PM 25.4025 -80.9867 220° Southwest 397 457 38,000  Level Miami Center
Tue 05:43:47 PM 25.3175 -81.0667 220° Southwest 398 458 38,000  Level Miami Center
Tue 05:44:49 PM 25.2325 -81.1469 221° Southwest 402 463 38,000  Level Miami Center
Tue 05:45:52 PM 25.1311 -81.2428 221° Southwest 401 461 38,000  Level Miami Center
Tue 05:46:54 PM 25.0461 -81.3228 220° Southwest 401 461 38,000 -387 Level Miami Center
Tue 05:47:56 PM 24.9606 -81.4019 220° Southwest 401 461 37,200 -677 Descending Miami Center
Tue 05:48:58 PM 24.8753 -81.4819 220° Southwest 401 461 36,600 -823 Descending Miami Center
Tue 05:50:00 PM 24.7744 -81.5769 221° Southwest 402 463 35,500 -1,016 Descending Miami Center
Tue 05:51:02 PM 24.6836 -81.6617 220° Southwest 412 474 34,500 -968 Descending Miami Center
Tue 05:52:04 PM 24.5942 -81.7431 220° Southwest 416 479 33,500 -919 Descending Miami Center
Tue 05:53:06 PM 24.5172 -81.8272 225° Southwest 424 488 32,600 -968 Descending Miami Center
Tue 05:54:08 PM 24.4369 -81.9367 231° Southwest 420 483 31,500 -1,008 Descending Miami Center
Tue 05:55:11 PM 24.3619 -82.0367 231° Southwest 421 484 30,500 -960 Descending Miami Center
Tue 05:56:13 PM 24.2878 -82.1364 231° Southwest 422 486 29,500 -1,161 Descending Miami Center
Tue 05:57:15 PM 24.1989 -82.2572 231° Southwest 422 486 28,100 -1,790 Descending Miami Center
Tue 05:58:17 PM 24.1247 -82.3556 230° Southwest 421 484 25,800 -2,419 Descending Miami Center
Tue 05:59:19 PM 24.0308 -82.4489 222° Southwest 420 483 23,100 -2,613 Descending Miami Center
Tue 06:01:00 PM 23.8812 -82.4997 173° South  Level FlightAware Approximate
Tue 06:08:00 PM 23.0742 -82.4048 170° South  Level FlightAware Approximate
Tue 06:09:00 PM 22.9891 -82.4091 180° South  Level Estimated
Tue 06:10:00 PM 22.9891 -82.4091 180° South  Level Estimated
Tue 06:11:00 PM 22.9891 -82.4091 180° South  Level Estimated
Tue 06:12:00 PM 22.9891 -82.4091 180° South  Level Estimated
Tue 06:13:00 PM 22.9891 -82.4091 180° South  Level Estimated
Tue 06:14:00 PM 22.9891 -82.4091 180° South  Level Estimated
Tue 06:15:00 PM 22.9891 -82.4091 180° South  Level Estimated

Login

Don't have an account? Register now (free) for customized features, flight alerts, and more!